createdAt,value
2023-02-16T00:00:19.795Z,-0.55
2023-02-16T00:02:48.281Z,-0.53
2023-02-16T00:05:32.641Z,-0.64
2023-02-16T00:08:00.947Z,-0.53
2023-02-16T00:10:33.275Z,-0.56
2023-02-16T00:13:19.609Z,-0.43
2023-02-16T00:15:47.479Z,-0.50
2023-02-16T00:18:22.509Z,-0.43
2023-02-16T00:20:50.136Z,-0.45
2023-02-16T00:23:17.474Z,-0.55
2023-02-16T00:25:45.044Z,-0.49
2023-02-16T00:28:21.477Z,-0.50
2023-02-16T00:30:50.934Z,-0.48
2023-02-16T00:33:21.103Z,-0.51
2023-02-16T00:35:49.546Z,-0.55
2023-02-16T00:38:17.149Z,-0.57
2023-02-16T00:40:50.095Z,-0.53
2023-02-16T00:43:31.262Z,-0.57
2023-02-16T00:46:00.211Z,-0.53
2023-02-16T00:48:27.317Z,-0.59
2023-02-16T00:50:54.736Z,-0.56
2023-02-16T00:53:22.290Z,-0.63
2023-02-16T00:55:49.768Z,-0.58
2023-02-16T00:58:25.893Z,-0.77
2023-02-16T01:00:56.089Z,-0.82
2023-02-16T01:03:26.187Z,-0.62
2023-02-16T01:06:13.952Z,-0.47
2023-02-16T01:09:01.187Z,-0.51
2023-02-16T01:11:29.538Z,-0.65
2023-02-16T01:13:57.692Z,-0.77
2023-02-16T01:16:35.545Z,-0.78
2023-02-16T01:19:04.733Z,-0.76
2023-02-16T01:21:34.082Z,-0.60
2023-02-16T01:24:01.389Z,-0.68
2023-02-16T01:26:30.532Z,-0.72
2023-02-16T01:28:57.806Z,-0.83
2023-02-16T01:31:25.412Z,-0.80
2023-02-16T01:33:52.840Z,-0.68
2023-02-16T01:36:29.995Z,-0.71
2023-02-16T01:38:57.402Z,-0.81
2023-02-16T01:41:24.784Z,-0.69
2023-02-16T01:44:06.058Z,-0.79
2023-02-16T01:46:57.935Z,-0.77
2023-02-16T01:49:25.128Z,-0.85
2023-02-16T01:52:31.224Z,-0.78
2023-02-16T01:55:24.505Z,-0.71
2023-02-16T01:58:01.312Z,-0.89
2023-02-16T02:00:50.057Z,-0.75
2023-02-16T02:03:43.020Z,-0.75
2023-02-16T02:06:21.473Z,-0.78
2023-02-16T02:08:57.195Z,-0.80
2023-02-16T02:11:34.684Z,-0.80
2023-02-16T02:14:14.131Z,-0.94
2023-02-16T02:16:55.558Z,-0.95
2023-02-16T02:19:25.529Z,-1.01
2023-02-16T02:22:45.320Z,-1.00
2023-02-16T02:25:40.647Z,-1.11
2023-02-16T02:28:45.786Z,-1.07
2023-02-16T02:31:31.388Z,-1.05
2023-02-16T02:34:30.189Z,-1.13
2023-02-16T02:36:57.403Z,-1.10
2023-02-16T02:39:30.881Z,-1.17
2023-02-16T02:42:17.320Z,-1.25
2023-02-16T02:44:55.317Z,-1.19
2023-02-16T02:47:22.722Z,-1.16
2023-02-16T02:49:54.477Z,-1.21
2023-02-16T02:52:22.972Z,-1.12
2023-02-16T02:55:09.127Z,-1.12
2023-02-16T02:58:08.663Z,-1.35
2023-02-16T03:00:51.930Z,-1.18
2023-02-16T03:03:43.385Z,-1.19
2023-02-16T03:06:26.666Z,-1.26
2023-02-16T03:09:05.370Z,-1.27
2023-02-16T03:11:51.260Z,-1.25
2023-02-16T03:14:26.652Z,-1.28
2023-02-16T03:17:20.796Z,-1.24
2023-02-16T03:20:10.500Z,-1.34
2023-02-16T03:22:58.168Z,-1.33
2023-02-16T03:25:53.463Z,-1.48
2023-02-16T03:28:43.045Z,-1.35
2023-02-16T03:31:22.724Z,-1.26
2023-02-16T03:33:55.255Z,-1.30
2023-02-16T03:36:28.222Z,-1.23
2023-02-16T03:38:56.920Z,-1.35
2023-02-16T03:41:26.697Z,-1.31
2023-02-16T03:43:54.057Z,-1.22
2023-02-16T03:46:21.958Z,-1.38
2023-02-16T03:48:50.061Z,-1.36
2023-02-16T03:51:17.584Z,-1.31
2023-02-16T03:53:46.033Z,-1.26
2023-02-16T03:56:13.800Z,-1.25
2023-02-16T03:58:40.945Z,-1.39
2023-02-16T04:01:08.429Z,-1.44
2023-02-16T04:03:35.557Z,-1.34
2023-02-16T04:06:04.122Z,-1.40
2023-02-16T04:08:31.181Z,-1.43
2023-02-16T04:10:58.966Z,-1.43
2023-02-16T04:13:26.723Z,-1.56
2023-02-16T04:15:54.208Z,-1.55
2023-02-16T04:18:21.724Z,-1.68
2023-02-16T04:20:49.164Z,-1.51
2023-02-16T04:23:16.543Z,-1.51
2023-02-16T04:25:44.085Z,-1.43
2023-02-16T04:28:11.507Z,-1.41
2023-02-16T04:30:39.081Z,-1.46
2023-02-16T04:33:06.452Z,-1.29
2023-02-16T04:35:34.988Z,-1.34
2023-02-16T04:38:02.413Z,-1.25
2023-02-16T04:40:30.812Z,-1.26
2023-02-16T04:42:58.315Z,-1.35
2023-02-16T04:45:25.720Z,-1.47
2023-02-16T04:47:53.211Z,-1.35
2023-02-16T04:50:20.775Z,-1.24
2023-02-16T04:52:48.121Z,-1.28
2023-02-16T04:55:17.693Z,-1.33
2023-02-16T04:57:47.187Z,-1.31
2023-02-16T05:00:16.886Z,-1.31
2023-02-16T05:02:44.136Z,-1.30
2023-02-16T05:05:11.618Z,-1.28
2023-02-16T05:07:40.002Z,-1.48
2023-02-16T05:10:07.832Z,-1.33
2023-02-16T05:12:53.512Z,-1.29
2023-02-16T05:15:20.926Z,-1.26
2023-02-16T05:17:49.535Z,-1.42
2023-02-16T05:20:18.945Z,-1.37
2023-02-16T05:22:46.657Z,-1.37
2023-02-16T05:25:13.910Z,-1.44
2023-02-16T05:27:41.176Z,-1.49
2023-02-16T05:30:10.197Z,-1.57
2023-02-16T05:32:37.794Z,-1.62
2023-02-16T05:35:06.892Z,-1.46
2023-02-16T05:37:34.200Z,-1.57
2023-02-16T05:40:01.806Z,-1.57
2023-02-16T05:42:29.066Z,-1.67
2023-02-16T05:44:56.607Z,-1.68
2023-02-16T05:47:24.091Z,-1.60
2023-02-16T05:49:51.550Z,-1.59
2023-02-16T05:52:25.088Z,-1.62
2023-02-16T05:54:52.560Z,-1.56
2023-02-16T05:57:20.033Z,-1.54
2023-02-16T05:59:47.174Z,-1.55
2023-02-16T06:02:14.628Z,-1.58
2023-02-16T06:04:41.662Z,-1.66
2023-02-16T06:07:09.014Z,-1.59
2023-02-16T06:09:42.417Z,-1.61
2023-02-16T06:12:09.490Z,-1.51
2023-02-16T06:14:37.941Z,-1.42
2023-02-16T06:17:05.479Z,-1.44
2023-02-16T06:19:33.869Z,-1.46
2023-02-16T06:22:01.452Z,-1.67
2023-02-16T06:24:29.839Z,-1.49
2023-02-16T06:26:57.318Z,-1.39
2023-02-16T06:29:24.723Z,-1.29
2023-02-16T06:31:52.441Z,-1.30
2023-02-16T06:34:19.737Z,-1.26
2023-02-16T06:36:47.403Z,-1.28
2023-02-16T06:39:14.587Z,-1.22
2023-02-16T06:41:43.104Z,-1.23
2023-02-16T06:44:13.760Z,-1.23
2023-02-16T06:46:47.141Z,-1.23
2023-02-16T06:49:18.602Z,-1.00
2023-02-16T06:51:47.280Z,-0.88
2023-02-16T06:54:17.426Z,-0.81
2023-02-16T06:56:44.888Z,-0.72
2023-02-16T06:59:13.571Z,-0.61
2023-02-16T07:01:42.533Z,-0.57
2023-02-16T07:04:11.228Z,-0.43
2023-02-16T07:06:38.623Z,-0.39
2023-02-16T07:09:07.468Z,-0.22
2023-02-16T07:11:34.599Z,-0.10
2023-02-16T07:14:02.084Z,0.01
2023-02-16T07:16:29.661Z,0.15
2023-02-16T07:18:57.057Z,0.21
2023-02-16T07:21:24.387Z,0.24
2023-02-16T07:23:51.976Z,0.34
2023-02-16T07:26:19.649Z,0.44
2023-02-16T07:28:46.924Z,0.55
2023-02-16T07:31:17.385Z,0.66
2023-02-16T07:33:45.777Z,0.76
2023-02-16T07:36:14.021Z,0.79
2023-02-16T07:38:42.253Z,0.94
2023-02-16T07:41:10.903Z,0.98
2023-02-16T07:43:38.747Z,1.14
2023-02-16T07:46:06.300Z,1.33
2023-02-16T07:48:33.788Z,1.42
2023-02-16T07:51:02.115Z,1.52
2023-02-16T07:53:30.673Z,1.56
2023-02-16T07:55:58.107Z,1.59
2023-02-16T07:58:28.417Z,1.66
2023-02-16T08:01:09.145Z,1.76
2023-02-16T08:03:36.297Z,1.91
2023-02-16T08:06:04.893Z,2.02
2023-02-16T08:08:32.531Z,2.06
2023-02-16T08:11:00.955Z,2.19
2023-02-16T08:13:30.241Z,2.31
2023-02-16T08:15:57.713Z,2.47
2023-02-16T08:18:25.159Z,2.50
2023-02-16T08:21:03.897Z,2.69
2023-02-16T08:23:32.940Z,2.85
2023-02-16T08:26:07.122Z,3.01
2023-02-16T08:28:34.437Z,3.06
2023-02-16T08:31:07.431Z,3.10
2023-02-16T08:33:35.269Z,3.37
2023-02-16T08:36:03.771Z,3.61
2023-02-16T08:38:34.686Z,3.67
2023-02-16T08:41:04.139Z,3.86
2023-02-16T08:43:32.836Z,3.95
2023-02-16T08:46:11.347Z,4.15
2023-02-16T08:48:40.215Z,4.16
2023-02-16T08:51:08.334Z,4.25
2023-02-16T08:53:35.693Z,4.29
2023-02-16T08:56:04.612Z,4.31
2023-02-16T08:58:32.692Z,4.39
2023-02-16T09:01:05.230Z,4.52
2023-02-16T09:03:32.987Z,4.73
2023-02-16T09:06:03.692Z,4.89
2023-02-16T09:08:33.713Z,5.00
2023-02-16T09:11:15.736Z,5.10
2023-02-16T09:13:45.275Z,5.40
2023-02-16T09:16:16.066Z,5.82
2023-02-16T09:18:45.297Z,6.35
2023-02-16T09:21:16.583Z,6.97
2023-02-16T09:23:49.365Z,7.42
2023-02-16T09:26:18.903Z,8.02
2023-02-16T09:28:48.943Z,8.23
2023-02-16T09:31:25.969Z,8.49
2023-02-16T09:34:02.426Z,8.64
2023-02-16T09:36:29.866Z,8.87
2023-02-16T09:38:59.925Z,9.60
2023-02-16T09:41:52.499Z,9.67
2023-02-16T09:44:54.895Z,9.96
2023-02-16T09:47:35.066Z,9.97
2023-02-16T09:50:52.551Z,9.67
2023-02-16T09:53:46.774Z,10.09
2023-02-16T09:56:38.252Z,10.57
2023-02-16T09:59:05.777Z,11.17
2023-02-16T10:02:21.619Z,11.28
2023-02-16T10:04:54.488Z,11.29
2023-02-16T10:07:58.952Z,10.74
2023-02-16T10:10:44.346Z,11.05
2023-02-16T10:13:23.401Z,10.82
2023-02-16T10:15:54.159Z,10.63
2023-02-16T10:18:38.685Z,10.19
2023-02-16T10:21:14.290Z,10.98
2023-02-16T10:23:48.025Z,10.88
2023-02-16T10:26:29.420Z,9.57
2023-02-16T10:29:00.771Z,9.53
2023-02-16T10:31:38.942Z,10.11
2023-02-16T10:34:23.441Z,10.47
2023-02-16T10:37:21.559Z,11.55
2023-02-16T10:40:09.865Z,12.02
2023-02-16T10:43:25.871Z,11.67
2023-02-16T10:45:59.422Z,11.30
2023-02-16T10:48:27.534Z,12.12
2023-02-16T10:51:03.707Z,11.94
2023-02-16T10:53:53.215Z,12.51
2023-02-16T10:56:35.193Z,12.30
2023-02-16T10:59:08.073Z,11.45
2023-02-16T11:01:43.110Z,12.40
2023-02-16T11:04:30.384Z,13.19
2023-02-16T11:07:07.289Z,12.98
2023-02-16T11:09:35.026Z,13.72
2023-02-16T11:12:15.454Z,13.01
2023-02-16T11:14:49.540Z,12.85
2023-02-16T11:17:18.978Z,12.03
2023-02-16T11:20:01.595Z,12.26
2023-02-16T11:22:29.072Z,12.50
2023-02-16T11:24:56.778Z,12.67
2023-02-16T11:27:24.714Z,12.60
2023-02-16T11:30:12.379Z,12.57
2023-02-16T11:32:39.945Z,12.03
2023-02-16T11:35:10.457Z,11.78
2023-02-16T11:37:41.243Z,13.13
2023-02-16T11:40:25.081Z,13.98
2023-02-16T11:42:58.214Z,14.43
2023-02-16T11:45:33.401Z,14.73
2023-02-16T11:48:14.241Z,15.24
2023-02-16T11:50:57.476Z,15.73
2023-02-16T11:53:29.246Z,14.95
2023-02-16T11:56:30.436Z,15.60
2023-02-16T11:59:19.515Z,16.78
2023-02-16T12:02:09.369Z,15.81
2023-02-16T12:04:59.814Z,16.01
2023-02-16T12:07:33.306Z,15.79
2023-02-16T12:10:36.156Z,16.08
2023-02-16T12:13:35.550Z,15.06
2023-02-16T12:16:16.810Z,15.77
2023-02-16T12:19:07.877Z,15.36
2023-02-16T12:21:48.741Z,14.68
2023-02-16T12:24:44.721Z,14.99
2023-02-16T12:27:30.812Z,16.09
2023-02-16T12:30:29.014Z,16.60
2023-02-16T12:33:08.774Z,16.03
2023-02-16T12:35:49.814Z,15.78
2023-02-16T12:38:27.237Z,16.11
2023-02-16T12:41:29.495Z,16.50
2023-02-16T12:44:15.527Z,16.59
2023-02-16T12:46:46.097Z,16.35
2023-02-16T12:49:27.785Z,15.15
2023-02-16T12:52:05.625Z,14.54
2023-02-16T12:55:11.322Z,14.25
2023-02-16T12:57:52.374Z,14.67
2023-02-16T13:00:49.856Z,13.97
2023-02-16T13:03:39.175Z,14.15
2023-02-16T13:06:41.303Z,14.38
2023-02-16T13:09:36.642Z,13.60
2023-02-16T13:12:24.595Z,13.75
2023-02-16T13:15:19.345Z,14.24
2023-02-16T13:18:25.247Z,14.59
2023-02-16T13:21:11.284Z,14.52
2023-02-16T13:24:03.540Z,14.38
2023-02-16T13:26:41.050Z,13.90
2023-02-16T13:29:45.495Z,13.61
2023-02-16T13:32:49.038Z,12.86
2023-02-16T13:35:47.534Z,12.68
2023-02-16T13:38:45.067Z,11.88
2023-02-16T13:41:19.329Z,11.39
2023-02-16T13:44:24.484Z,11.77
2023-02-16T13:46:54.208Z,11.69
2023-02-16T13:49:57.111Z,11.57
2023-02-16T13:52:45.191Z,12.01
2023-02-16T13:55:32.264Z,12.02
2023-02-16T13:58:04.844Z,11.94
2023-02-16T14:00:57.561Z,11.84
2023-02-16T14:03:25.032Z,11.52
2023-02-16T14:05:56.399Z,11.18
2023-02-16T14:08:28.484Z,10.77
2023-02-16T14:10:57.617Z,10.84
2023-02-16T14:13:29.566Z,10.36
2023-02-16T14:16:02.246Z,10.22
2023-02-16T14:18:54.063Z,10.40
2023-02-16T14:21:44.266Z,10.32
2023-02-16T14:24:33.593Z,10.38
2023-02-16T14:27:07.111Z,10.55
2023-02-16T14:29:46.510Z,10.71
2023-02-16T14:32:21.795Z,10.94
2023-02-16T14:34:56.441Z,11.02
2023-02-16T14:37:41.594Z,11.52
2023-02-16T14:40:16.634Z,11.77
2023-02-16T14:42:58.580Z,12.21
2023-02-16T14:45:54.190Z,11.93
2023-02-16T14:48:40.387Z,11.35
2023-02-16T14:51:17.197Z,11.19
2023-02-16T14:54:02.968Z,11.06
2023-02-16T14:56:39.473Z,11.08
2023-02-16T14:59:12.946Z,10.91
2023-02-16T15:01:45.062Z,10.68
2023-02-16T15:04:12.711Z,10.41
2023-02-16T15:06:47.096Z,10.15
2023-02-16T15:09:24.260Z,10.02
2023-02-16T15:12:16.399Z,10.01
2023-02-16T15:14:48.683Z,9.64
2023-02-16T15:17:36.489Z,9.26
2023-02-16T15:20:11.192Z,9.02
2023-02-16T15:23:03.738Z,8.61
2023-02-16T15:25:34.268Z,8.81
2023-02-16T15:28:04.692Z,8.60
2023-02-16T15:30:47.412Z,8.52
2023-02-16T15:33:24.901Z,8.23
2023-02-16T15:36:00.399Z,8.31
2023-02-16T15:38:33.164Z,8.37
2023-02-16T15:41:04.255Z,8.39
2023-02-16T15:43:51.191Z,8.24
2023-02-16T15:46:28.863Z,8.04
2023-02-16T15:48:57.475Z,8.11
2023-02-16T15:51:34.283Z,7.92
2023-02-16T15:54:04.352Z,8.00
2023-02-16T15:56:45.517Z,7.93
2023-02-16T15:59:34.385Z,7.66
2023-02-16T16:02:26.874Z,7.38
2023-02-16T16:05:00.538Z,7.63
2023-02-16T16:07:36.715Z,7.77
2023-02-16T16:10:20.970Z,7.66
2023-02-16T16:12:50.596Z,7.49
2023-02-16T16:15:25.383Z,7.39
2023-02-16T16:17:56.253Z,7.23
2023-02-16T16:20:38.413Z,7.13
2023-02-16T16:23:27.453Z,6.97
2023-02-16T16:25:57.329Z,6.97
2023-02-16T16:28:28.377Z,6.97
2023-02-16T16:31:11.478Z,6.97
2023-02-16T16:34:02.792Z,6.88
2023-02-16T16:36:36.687Z,6.91
2023-02-16T16:39:19.378Z,6.89
2023-02-16T16:42:09.434Z,6.71
2023-02-16T16:44:42.076Z,6.68
2023-02-16T16:47:27.190Z,6.61
2023-02-16T16:50:15.668Z,6.55
2023-02-16T16:52:46.825Z,6.48
2023-02-16T16:55:27.542Z,6.15
2023-02-16T16:57:58.274Z,6.15
2023-02-16T17:00:35.316Z,6.22
2023-02-16T17:03:12.419Z,6.09
2023-02-16T17:05:42.327Z,6.12
2023-02-16T17:08:12.025Z,5.99
2023-02-16T17:10:41.980Z,5.98
2023-02-16T17:13:17.486Z,5.98
2023-02-16T17:16:04.680Z,5.87
2023-02-16T17:18:35.139Z,5.88
2023-02-16T17:21:05.985Z,5.73
2023-02-16T17:23:38.296Z,5.67
2023-02-16T17:26:06.786Z,5.62
2023-02-16T17:28:37.808Z,5.61
2023-02-16T17:31:15.457Z,5.52
2023-02-16T17:33:45.125Z,5.47
2023-02-16T17:36:16.484Z,5.32
2023-02-16T17:38:45.950Z,5.18
2023-02-16T17:41:29.075Z,5.24
2023-02-16T17:43:56.888Z,5.17
2023-02-16T17:46:29.094Z,5.06
2023-02-16T17:48:57.097Z,5.06
2023-02-16T17:51:27.101Z,5.05
2023-02-16T17:53:55.153Z,5.03
2023-02-16T17:56:26.591Z,5.13
2023-02-16T17:58:54.598Z,5.10
2023-02-16T18:01:32.645Z,5.21
2023-02-16T18:04:00.802Z,5.06
2023-02-16T18:06:34.900Z,4.81
2023-02-16T18:09:03.229Z,4.74
2023-02-16T18:11:32.085Z,4.62
2023-02-16T18:14:03.993Z,4.49
2023-02-16T18:16:32.831Z,4.34
2023-02-16T18:19:03.693Z,4.30
2023-02-16T18:21:32.042Z,4.21
2023-02-16T18:23:59.663Z,3.99
2023-02-16T18:26:32.904Z,3.87
2023-02-16T18:29:01.377Z,3.78
2023-02-16T18:31:29.770Z,3.68
2023-02-16T18:34:08.035Z,3.81
2023-02-16T18:36:39.103Z,3.79
2023-02-16T18:39:09.327Z,3.84
2023-02-16T18:41:38.006Z,3.97
2023-02-16T18:44:07.560Z,4.03
2023-02-16T18:46:36.698Z,4.14
2023-02-16T18:49:04.605Z,4.10
2023-02-16T18:51:34.613Z,4.10
2023-02-16T18:54:02.864Z,4.19
2023-02-16T18:56:32.344Z,4.02
2023-02-16T18:59:02.128Z,4.21
2023-02-16T19:01:42.298Z,4.31
2023-02-16T19:04:16.295Z,4.38
2023-02-16T19:09:32.385Z,4.47
2023-02-16T19:12:00.283Z,4.53
2023-02-16T19:14:30.216Z,4.49
2023-02-16T19:17:00.392Z,4.57
2023-02-16T19:19:31.071Z,4.59
2023-02-16T19:22:02.502Z,4.44
2023-02-16T19:24:31.899Z,4.49
2023-02-16T19:27:01.784Z,4.52
2023-02-16T19:29:31.774Z,4.51
2023-02-16T19:31:59.965Z,4.42
2023-02-16T19:34:29.419Z,4.40
2023-02-16T19:36:57.547Z,4.36
2023-02-16T19:39:26.154Z,4.30
2023-02-16T19:41:56.977Z,4.28
2023-02-16T19:44:34.191Z,4.24
2023-02-16T19:47:04.021Z,4.28
2023-02-16T19:49:39.612Z,4.41
2023-02-16T19:52:13.125Z,4.47
2023-02-16T19:54:40.775Z,4.57
2023-02-16T19:57:09.069Z,4.57
2023-02-16T19:59:37.114Z,4.54
2023-02-16T20:02:06.079Z,4.63
2023-02-16T20:04:36.877Z,4.73
2023-02-16T20:07:11.330Z,4.63
2023-02-16T20:09:41.784Z,4.63
2023-02-16T20:12:10.767Z,4.56
2023-02-16T20:14:39.107Z,4.42
2023-02-16T20:17:07.363Z,4.51
2023-02-16T20:19:34.932Z,4.51
2023-02-16T20:22:15.616Z,4.40
2023-02-16T20:24:45.759Z,4.37
2023-02-16T20:27:15.514Z,4.39
2023-02-16T20:29:50.904Z,4.34
2023-02-16T20:32:20.290Z,4.27
2023-02-16T20:34:50.837Z,4.19
2023-02-16T20:37:19.270Z,4.21
2023-02-16T20:39:48.845Z,4.13
2023-02-16T20:42:17.512Z,4.01
2023-02-16T20:44:45.632Z,3.90
2023-02-16T20:47:13.507Z,3.88
2023-02-16T20:49:42.422Z,3.56
2023-02-16T20:52:11.042Z,3.48
2023-02-16T20:54:42.122Z,3.43
2023-02-16T20:57:25.696Z,3.41
2023-02-16T20:59:56.338Z,3.29
2023-02-16T21:02:25.954Z,3.25
2023-02-16T21:04:55.206Z,3.22
2023-02-16T21:07:24.106Z,3.15
2023-02-16T21:09:54.560Z,3.08
2023-02-16T21:12:22.585Z,2.92
2023-02-16T21:14:53.665Z,3.01
2023-02-16T21:17:23.816Z,2.94
2023-02-16T21:19:52.466Z,2.99
2023-02-16T21:22:25.139Z,3.03
2023-02-16T21:24:53.584Z,3.00
2023-02-16T21:27:22.383Z,2.89
2023-02-16T21:29:50.595Z,2.85
2023-02-16T21:32:24.887Z,2.72
2023-02-16T21:34:52.973Z,2.63
2023-02-16T21:37:20.560Z,2.50
2023-02-16T21:40:06.419Z,2.44
2023-02-16T21:42:36.161Z,2.40
2023-02-16T21:45:14.368Z,2.35
2023-02-16T21:48:04.454Z,2.49
2023-02-16T21:50:41.110Z,2.50
2023-02-16T21:53:09.686Z,2.50
2023-02-16T21:55:57.730Z,2.41
2023-02-16T21:58:30.530Z,2.53
2023-02-16T22:00:57.841Z,2.47
2023-02-16T22:03:26.192Z,2.45
2023-02-16T22:05:53.856Z,2.54
2023-02-16T22:08:20.970Z,2.42
2023-02-16T22:10:48.171Z,2.57
2023-02-16T22:13:17.607Z,2.47
2023-02-16T22:15:44.945Z,2.38
2023-02-16T22:18:12.460Z,2.37
2023-02-16T22:20:40.986Z,2.48
2023-02-16T22:23:08.020Z,2.50
2023-02-16T22:25:40.542Z,2.57
2023-02-16T22:28:09.827Z,2.52
2023-02-16T22:30:37.568Z,2.67
2023-02-16T22:33:04.903Z,2.83
2023-02-16T22:35:31.870Z,2.86
2023-02-16T22:38:01.409Z,2.89
2023-02-16T22:40:28.860Z,2.89
2023-02-16T22:42:56.273Z,2.87
2023-02-16T22:45:23.758Z,2.89
2023-02-16T22:47:51.203Z,2.96
2023-02-16T22:50:18.674Z,3.07
2023-02-16T22:52:47.314Z,3.12
2023-02-16T22:55:15.604Z,3.05
2023-02-16T22:57:44.052Z,3.13
2023-02-16T23:00:15.386Z,3.33
2023-02-16T23:02:43.635Z,3.46
2023-02-16T23:05:11.105Z,3.54
2023-02-16T23:07:38.168Z,3.64
2023-02-16T23:10:06.137Z,3.68
2023-02-16T23:12:33.425Z,3.73
2023-02-16T23:15:00.893Z,3.81
2023-02-16T23:17:28.337Z,3.79
2023-02-16T23:19:55.802Z,3.76
2023-02-16T23:22:23.384Z,3.72
2023-02-16T23:25:10.598Z,3.68
2023-02-16T23:27:38.182Z,3.78
2023-02-16T23:30:07.310Z,3.82
2023-02-16T23:32:34.534Z,3.85
2023-02-16T23:35:03.564Z,3.83
2023-02-16T23:37:31.806Z,3.72
2023-02-16T23:40:00.303Z,3.89
2023-02-16T23:42:28.530Z,3.82
2023-02-16T23:44:56.021Z,3.87
2023-02-16T23:47:23.763Z,3.95
2023-02-16T23:49:57.001Z,3.83
2023-02-16T23:52:24.425Z,3.63
2023-02-16T23:54:51.917Z,3.53
2023-02-16T23:57:19.420Z,3.53
2023-02-16T23:59:46.810Z,3.52
